Time;durP1;ratioP1;P1;durP2;ratioP2;P2;SDS_P1;SDS_P2;PMS_P1;PMS_P2;Temp;Humidity;BMP_temperature;BMP_pressure;BME280_temperature;BME280_humidity;BME280_pressure;Samples;Min_cycle;Max_cycle;Signal;HPM_P1;HPM_P2
2023/01/15 00:00:52;;;;;;;;;;;;;;;19.89;40.16;99706.72;7261162;19;154645;-55
2023/01/15 00:03:19;;;;;;;;;;;;;;;19.92;40.36;99714.44;7254074;19;153387;-54
2023/01/15 00:05:45;;;;;;;;;;;;;;;19.94;40.22;99708.50;7255331;19;155244;-55
2023/01/15 00:08:12;;;;;;;;;;;;;;;19.97;40.40;99724.66;7258514;19;153641;-55
2023/01/15 00:10:39;;;;;;;;;;;;;;;19.98;40.32;99709.47;7255795;19;153946;-55
2023/01/15 00:13:06;;;;;;;;;;;;;;;19.98;39.80;99699.09;7259539;19;154138;-55
2023/01/15 00:15:33;;;;;;;;;;;;;;;20.01;39.71;99702.38;7268147;19;153119;-54
2023/01/15 00:18:00;;;;;;;;;;;;;;;20.01;40.13;99711.59;7258600;19;153183;-55
2023/01/15 00:20:27;;;;;;;;;;;;;;;20.03;39.48;99706.50;7261397;19;152958;-55
2023/01/15 00:22:54;;;;;;;;;;;;;;;20.03;39.38;99698.09;7259889;19;155636;-55
2023/01/15 00:27:58;;;;;;;;;;;;;;;20.03;39.42;99705.69;7258631;19;154700;-55
2023/01/15 00:30:27;;;;;;;;;;;;;;;20.04;39.47;99693.28;7257461;19;154200;-55
2023/01/15 00:32:54;;;;;;;;;;;;;;;20.04;39.64;99690.47;7257680;19;153128;-55
2023/01/15 00:35:22;;;;;;;;;;;;;;;20.01;39.24;99699.56;7266348;19;154410;-55
2023/01/15 00:37:48;;;;;;;;;;;;;;;20.00;39.31;99704.34;7260447;19;154307;-55
2023/01/15 00:40:17;;;;;;;;;;;;;;;19.99;39.41;99702.69;7264165;19;153730;-54
2023/01/15 00:42:44;;;;;;;;;;;;;;;19.98;39.51;99717.91;7263962;19;154614;-56
2023/01/15 00:45:20;;;;;;;;;;;;;;;19.95;39.22;99710.13;7263739;19;153717;-56
2023/01/15 00:47:49;;;;;;;;;;;;;;;19.93;39.46;99716.09;7266880;19;154563;-56
2023/01/15 00:50:16;;;;;;;;;;;;;;;19.93;39.48;99713.28;7264533;19;153962;-55
2023/01/15 00:52:43;;;;;;;;;;;;;;;19.90;39.14;99716.75;7266231;19;154237;-56
2023/01/15 00:55:10;;;;;;;;;;;;;;;19.91;39.55;99712.78;7261095;19;154554;-56
2023/01/15 00:57:37;;;;;;;;;;;;;;;19.88;39.36;99707.84;7271786;19;154592;-56
2023/01/15 01:00:04;;;;;;;;;;;;;;;19.86;39.05;99704.56;7264423;19;154580;-55
2023/01/15 01:02:31;;;;;;;;;;;;;;;19.85;39.13;99696.50;7262878;19;154360;-56
2023/01/15 01:04:58;;;;;;;;;;;;;;;19.86;39.44;99693.34;7254817;19;154122;-55
2023/01/15 01:07:25;;;;;;;;;;;;;;;19.86;39.13;99698.13;7262306;19;153392;-56
2023/01/15 01:09:52;;;;;;;;;;;;;;;19.82;38.81;99695.16;7260618;19;156249;-55
2023/01/15 01:12:20;;;;;;;;;;;;;;;19.77;38.95;99703.75;7264968;19;154587;-55
2023/01/15 01:14:47;;;;;;;;;;;;;;;19.77;38.84;99677.72;7264390;19;154723;-55
2023/01/15 01:17:14;;;;;;;;;;;;;;;19.76;39.07;99693.69;7264261;19;154919;-55
2023/01/15 01:19:40;;;;;;;;;;;;;;;19.77;39.27;99684.13;7271244;19;152930;-55
2023/01/15 01:22:07;;;;;;;;;;;;;;;19.74;39.29;99698.00;7262936;19;154184;-55
2023/01/15 01:24:34;;;;;;;;;;;;;;;19.72;39.03;99692.72;7262259;19;153015;-55
2023/01/15 01:27:01;;;;;;;;;;;;;;;19.74;39.20;99693.22;7263166;19;154222;-56
2023/01/15 01:29:28;;;;;;;;;;;;;;;19.71;39.29;99693.06;7263779;19;154491;-55
2023/01/15 01:31:55;;;;;;;;;;;;;;;19.66;38.95;99687.66;7264065;19;155227;-55
2023/01/15 01:34:22;;;;;;;;;;;;;;;19.64;38.96;99695.53;7262956;19;153893;-55
2023/01/15 01:36:49;;;;;;;;;;;;;;;19.63;38.83;99703.13;7262688;19;154133;-56
2023/01/15 01:39:17;;;;;;;;;;;;;;;19.59;38.96;99702.16;7260851;19;154483;-55
2023/01/15 01:41:45;;;;;;;;;;;;;;;19.58;38.96;99708.91;7264186;19;154249;-55
2023/01/15 01:44:21;;;;;;;;;;;;;;;19.54;39.25;99713.53;7263136;19;154069;-55
2023/01/15 01:46:48;;;;;;;;;;;;;;;19.52;39.09;99727.06;7264920;19;154213;-55
2023/01/15 01:49:15;;;;;;;;;;;;;;;19.53;39.18;99729.50;7261528;19;156727;-55
2023/01/15 01:51:44;;;;;;;;;;;;;;;19.49;39.07;99722.91;7260676;19;154281;-55
2023/01/15 01:54:12;;;;;;;;;;;;;;;19.43;39.15;99724.28;7260830;19;154054;-55
2023/01/15 01:56:39;;;;;;;;;;;;;;;19.38;39.60;99724.41;7263574;19;154528;-56
2023/01/15 01:59:07;;;;;;;;;;;;;;;19.36;39.30;99729.50;7262797;19;154204;-55
2023/01/15 02:01:34;;;;;;;;;;;;;;;19.36;39.66;99728.66;7261565;19;154974;-55
2023/01/15 02:04:02;;;;;;;;;;;;;;;19.31;39.28;99720.44;7266793;19;155528;-55
2023/01/15 02:06:29;;;;;;;;;;;;;;;19.31;39.37;99720.44;7263379;19;154067;-54
2023/01/15 02:08:56;;;;;;;;;;;;;;;19.33;39.51;99729.34;7256698;19;154579;-54
2023/01/15 02:11:23;;;;;;;;;;;;;;;19.32;39.59;99728.50;7259499;19;154269;-54
2023/01/15 02:13:51;;;;;;;;;;;;;;;19.33;39.45;99730.16;7262066;19;153392;-55
2023/01/15 02:16:22;;;;;;;;;;;;;;;19.32;39.44;99731.31;7262362;19;154601;-55
2023/01/15 02:18:49;;;;;;;;;;;;;;;19.31;39.44;99731.63;7260710;19;154037;-54
2023/01/15 02:21:17;;;;;;;;;;;;;;;19.35;39.56;99736.25;7261370;19;153241;-56
2023/01/15 02:23:52;;;;;;;;;;;;;;;19.36;39.70;99728.66;7259319;19;154684;-55
2023/01/15 02:26:19;;;;;;;;;;;;;;;19.39;40.38;99723.25;7266236;19;153941;-55
2023/01/15 02:28:47;;;;;;;;;;;;;;;19.41;39.91;99731.31;7259161;19;154563;-55
2023/01/15 02:31:19;;;;;;;;;;;;;;;19.43;40.15;99723.41;7261790;19;153238;-55
2023/01/15 02:33:50;;;;;;;;;;;;;;;19.45;40.58;99710.75;7264295;19;153391;-55
2023/01/15 02:36:19;;;;;;;;;;;;;;;19.46;40.27;99706.78;7254972;19;154905;-55
2023/01/15 02:38:47;;;;;;;;;;;;;;;19.50;40.32;99706.94;7258844;19;153783;-55
2023/01/15 02:41:16;;;;;;;;;;;;;;;19.53;40.55;99706.31;7261176;19;154510;-55
2023/01/15 02:43:46;;;;;;;;;;;;;;;19.56;40.48;99708.44;7259649;19;155572;-55
2023/01/15 02:46:14;;;;;;;;;;;;;;;19.60;40.62;99700.16;7269644;19;154469;-55
2023/01/15 02:48:42;;;;;;;;;;;;;;;19.63;40.24;99705.09;7259515;19;155274;-55
2023/01/15 02:51:13;;;;;;;;;;;;;;;19.67;40.77;99697.69;7258821;19;154562;-55
2023/01/15 02:53:42;;;;;;;;;;;;;;;19.71;40.43;99693.06;7256287;19;154231;-55
2023/01/15 02:56:12;;;;;;;;;;;;;;;19.75;40.49;99696.84;7257987;19;153712;-55
2023/01/15 02:58:41;;;;;;;;;;;;;;;19.79;40.74;99689.41;7262681;19;153209;-56
2023/01/15 03:01:11;;;;;;;;;;;;;;;19.81;40.26;99692.69;7260746;19;153520;-55
2023/01/15 03:03:47;;;;;;;;;;;;;;;19.86;40.62;99695.31;7252020;19;154307;-55
2023/01/15 03:06:15;;;;;;;;;;;;;;;19.89;40.67;99683.47;7260511;19;153960;-55
2023/01/15 03:08:42;;;;;;;;;;;;;;;19.92;40.64;99675.19;7264119;19;153558;-55
2023/01/15 03:11:12;;;;;;;;;;;;;;;19.95;40.61;99674.50;7260619;19;153398;-55
2023/01/15 03:13:40;;;;;;;;;;;;;;;19.99;40.57;99663.44;7263390;19;154968;-55
2023/01/15 03:18:47;;;;;;;;;;;;;;;20.09;41.25;99662.25;7260678;19;153064;-54
2023/01/15 03:21:16;;;;;;;;;;;;;;;20.12;41.12;99665.22;7259987;19;154033;-55
2023/01/15 03:23:46;;;;;;;;;;;;;;;20.17;41.17;99667.03;7256604;19;156336;-55
2023/01/15 03:26:13;;;;;;;;;;;;;;;20.21;41.26;99670.78;7260426;19;153456;-55
2023/01/15 03:28:40;;;;;;;;;;;;;;;20.24;41.55;99668.13;7263093;19;153983;-55
2023/01/15 03:31:07;;;;;;;;;;;;;;;20.28;41.20;99671.91;7266707;19;155291;-55
2023/01/15 03:33:34;;;;;;;;;;;;;;;20.30;41.50;99657.56;7261381;19;154966;-55
2023/01/15 03:36:01;;;;;;;;;;;;;;;20.35;41.55;99649.78;7259009;19;154669;-54
2023/01/15 03:38:32;;;;;;;;;;;;;;;20.39;41.51;99652.75;7259946;19;153053;-54
2023/01/15 03:41:08;;;;;;;;;;;;;;;20.43;41.14;99670.53;7258512;19;153958;-55
2023/01/15 03:43:45;;;;;;;;;;;;;;;20.47;40.94;99685.53;7258490;19;154297;-56
2023/01/15 03:46:22;;;;;;;;;;;;;;;20.51;41.34;99691.28;7261213;19;154212;-56
2023/01/15 03:48:54;;;;;;;;;;;;;;;20.54;40.87;99676.56;7260829;19;153588;-55
2023/01/15 03:51:24;;;;;;;;;;;;;;;20.56;41.18;99675.06;7259836;19;153414;-55
2023/01/15 03:53:54;;;;;;;;;;;;;;;20.60;40.89;99672.41;7263781;19;154249;-56
2023/01/15 03:56:31;;;;;;;;;;;;;;;20.64;40.70;99691.03;7257681;19;153645;-55
2023/01/15 03:59:04;;;;;;;;;;;;;;;20.66;40.91;99683.09;7257959;19;153599;-55
2023/01/15 04:01:35;;;;;;;;;;;;;;;20.70;40.60;99689.69;7260102;19;154516;-55
2023/01/15 04:04:04;;;;;;;;;;;;;;;20.73;40.96;99683.38;7255364;19;154106;-55
2023/01/15 04:06:33;;;;;;;;;;;;;;;20.76;41.15;99671.47;7260484;19;153761;-55
2023/01/15 04:09:00;;;;;;;;;;;;;;;20.79;40.35;99656.75;7253415;19;153938;-56
2023/01/15 04:11:27;;;;;;;;;;;;;;;20.80;40.08;99660.41;7256538;19;155386;-55
2023/01/15 04:13:54;;;;;;;;;;;;;;;20.82;40.41;99664.50;7258230;19;153397;-55
2023/01/15 04:16:24;;;;;;;;;;;;;;;20.81;39.55;99660.03;7266598;19;153670;-55
2023/01/15 04:18:51;;;;;;;;;;;;;;;20.83;39.24;99660.53;7256872;19;153583;-56
2023/01/15 04:21:18;;;;;;;;;;;;;;;20.81;39.04;99651.59;7258412;19;153334;-55
2023/01/15 04:23:45;;;;;;;;;;;;;;;20.79;38.86;99653.94;7253406;19;156366;-55
2023/01/15 04:26:12;;;;;;;;;;;;;;;20.81;39.36;99657.22;7259945;19;152995;-55
2023/01/15 04:28:39;;;;;;;;;;;;;;;20.81;38.99;99654.41;7257580;19;154389;-56
2023/01/15 04:31:06;;;;;;;;;;;;;;;20.79;39.37;99670.78;7256229;19;153938;-56
2023/01/15 04:33:33;;;;;;;;;;;;;;;20.80;38.89;99663.19;7257990;19;153077;-56
2023/01/15 04:36:00;;;;;;;;;;;;;;;20.76;38.73;99651.81;7258571;19;153760;-56
2023/01/15 04:38:27;;;;;;;;;;;;;;;20.76;38.80;99643.38;7261542;19;153826;-56
2023/01/15 04:46:08;;;;;;;;;;;;;;;20.73;38.45;99637.66;7258255;19;153496;-56
2023/01/15 04:48:35;;;;;;;;;;;;;;;20.70;38.49;99639.16;7256310;19;153585;-56
2023/01/15 04:51:03;;;;;;;;;;;;;;;20.74;39.21;99640.13;7257494;19;153838;-56
2023/01/15 04:53:29;;;;;;;;;;;;;;;20.74;38.69;99636.47;7256299;19;152742;-56
2023/01/15 04:56:06;;;;;;;;;;;;;;;20.72;39.00;99641.59;7258185;19;154190;-55
2023/01/15 04:58:33;;;;;;;;;;;;;;;20.77;38.97;99647.03;7265752;19;154389;-55
2023/01/15 05:01:00;;;;;;;;;;;;;;;20.80;39.10;99657.59;7257324;19;153509;-55
2023/01/15 05:03:28;;;;;;;;;;;;;;;20.80;38.91;99652.75;7255988;19;154034;-55
2023/01/15 05:05:55;;;;;;;;;;;;;;;20.84;39.36;99647.31;7257437;19;154090;-55
2023/01/15 05:08:22;;;;;;;;;;;;;;;20.86;39.56;99642.97;7255353;19;154257;-56
2023/01/15 05:10:48;;;;;;;;;;;;;;;20.89;39.62;99635.88;7254113;19;154536;-55
2023/01/15 05:13:15;;;;;;;;;;;;;;;20.92;39.42;99652.03;7256798;19;154270;-55
2023/01/15 05:15:45;;;;;;;;;;;;;;;20.95;39.16;99653.31;7259160;19;153475;-55
2023/01/15 05:18:13;;;;;;;;;;;;;;;20.97;39.50;99642.56;7256845;19;153839;-55
2023/01/15 05:20:40;;;;;;;;;;;;;;;20.98;39.06;99635.81;7264701;19;154013;-55
2023/01/15 05:23:07;;;;;;;;;;;;;;;21.00;39.33;99636.25;7255489;19;154353;-55
2023/01/15 05:25:35;;;;;;;;;;;;;;;21.00;39.00;99631.47;7258722;19;153552;-54
2023/01/15 05:28:02;;;;;;;;;;;;;;;21.01;39.17;99616.28;7263836;19;153735;-55
2023/01/15 05:30:29;;;;;;;;;;;;;;;21.01;39.13;99623.88;7260346;19;154742;-54
2023/01/15 05:32:56;;;;;;;;;;;;;;;21.02;38.67;99625.53;7261792;19;153584;-55
2023/01/15 05:35:23;;;;;;;;;;;;;;;21.00;38.49;99631.47;7264531;19;154909;-55
2023/01/15 05:37:49;;;;;;;;;;;;;;;20.99;38.75;99627.00;7263660;19;153559;-55
2023/01/15 05:40:16;;;;;;;;;;;;;;;21.02;38.81;99631.13;7260231;19;153578;-55
2023/01/15 05:42:43;;;;;;;;;;;;;;;21.04;39.16;99621.19;7272146;19;153352;-54
2023/01/15 05:45:10;;;;;;;;;;;;;;;21.05;38.67;99645.31;7264617;19;153221;-54
2023/01/15 05:47:36;;;;;;;;;;;;;;;21.07;38.89;99625.31;7264907;19;153493;-55
2023/01/15 05:50:03;;;;;;;;;;;;;;;21.12;39.66;99627.91;7260445;19;154966;-55
2023/01/15 05:52:30;;;;;;;;;;;;;;;21.14;39.49;99629.22;7264702;19;154263;-54
2023/01/15 05:54:57;;;;;;;;;;;;;;;21.17;39.73;99622.09;7260649;19;153487;-54
2023/01/15 05:57:23;;;;;;;;;;;;;;;21.18;40.00;99610.53;7263297;19;153346;-55
2023/01/15 05:59:52;;;;;;;;;;;;;;;21.18;39.17;99604.09;7264267;19;153500;-54
2023/01/15 06:02:18;;;;;;;;;;;;;;;21.20;39.69;99598.94;7265863;19;153270;-54
2023/01/15 06:04:45;;;;;;;;;;;;;;;21.22;39.60;99588.16;7266423;19;154750;-54
2023/01/15 06:07:12;;;;;;;;;;;;;;;21.23;39.32;99587.00;7263444;19;153633;-55
2023/01/15 06:09:39;;;;;;;;;;;;;;;21.21;38.68;99581.72;7258436;19;155470;-54
2023/01/15 06:12:05;;;;;;;;;;;;;;;21.23;38.85;99581.41;7263896;19;154637;-54
2023/01/15 06:14:32;;;;;;;;;;;;;;;21.20;38.75;99588.53;7262234;19;153400;-54
2023/01/15 06:16:59;;;;;;;;;;;;;;;21.22;38.87;99602.22;7260929;19;154430;-55
2023/01/15 06:19:26;;;;;;;;;;;;;;;21.20;38.36;99602.59;7261958;19;153831;-54
2023/01/15 06:21:53;;;;;;;;;;;;;;;21.20;38.28;99605.41;7262257;19;152744;-55
2023/01/15 06:24:20;;;;;;;;;;;;;;;21.17;38.18;99591.19;7259440;19;153526;-55
2023/01/15 06:26:46;;;;;;;;;;;;;;;21.16;38.15;99598.00;7271686;19;153641;-55
2023/01/15 06:29:17;;;;;;;;;;;;;;;21.17;38.65;99600.44;7261010;19;153115;-57
2023/01/15 06:31:44;;;;;;;;;;;;;;;21.14;38.40;99603.97;7262709;19;153636;-55
2023/01/15 06:34:11;;;;;;;;;;;;;;;21.14;38.44;99587.09;7260418;19;153936;-55
2023/01/15 06:36:38;;;;;;;;;;;;;;;21.14;38.52;99580.66;7261618;19;154059;-55
2023/01/15 06:39:04;;;;;;;;;;;;;;;21.10;38.28;99590.91;7258706;19;153521;-54
2023/01/15 06:49:27;;;;;;;;;;;;;;;21.04;38.29;99592.28;7259274;19;155741;-56
2023/01/15 06:51:53;;;;;;;;;;;;;;;21.01;38.44;99591.00;7260531;19;153271;-55
2023/01/15 06:54:20;;;;;;;;;;;;;;;21.02;38.05;99589.84;7261450;19;153509;-55
2023/01/15 06:56:47;;;;;;;;;;;;;;;20.97;38.03;99589.22;7261048;19;154020;-54
2023/01/15 06:59:14;;;;;;;;;;;;;;;20.98;38.12;99591.69;7262005;19;152706;-54
2023/01/15 07:01:40;;;;;;;;;;;;;;;20.97;38.22;99580.81;7261524;19;154146;-55
2023/01/15 07:04:07;;;;;;;;;;;;;;;20.95;38.58;99592.38;7259658;19;154697;-55
2023/01/15 07:06:34;;;;;;;;;;;;;;;20.95;38.41;99581.13;7262412;19;154271;-54
2023/01/15 07:09:01;;;;;;;;;;;;;;;20.94;38.21;99598.34;7264165;19;153342;-55
2023/01/15 07:11:27;;;;;;;;;;;;;;;20.92;38.29;99595.88;7259891;19;153619;-54
2023/01/15 07:14:04;;;;;;;;;;;;;;;20.88;38.23;99599.72;7258306;19;154722;-54
2023/01/15 07:16:33;;;;;;;;;;;;;;;20.85;38.02;99599.22;7258270;19;154333;-55
2023/01/15 07:19:00;;;;;;;;;;;;;;;20.83;38.48;99601.56;7259175;19;153821;-55
2023/01/15 07:21:26;;;;;;;;;;;;;;;20.79;38.24;99600.63;7261814;19;154309;-55
2023/01/15 07:23:53;;;;;;;;;;;;;;;20.79;38.20;99588.56;7258739;19;153272;-56
2023/01/15 07:26:20;;;;;;;;;;;;;;;20.75;38.39;99594.06;7259654;19;153508;-56
2023/01/15 07:28:47;;;;;;;;;;;;;;;20.72;38.41;99585.47;7262308;19;154497;-56
2023/01/15 07:31:13;;;;;;;;;;;;;;;20.64;38.27;99578.78;7265893;19;154069;-55
2023/01/15 07:33:40;;;;;;;;;;;;;;;20.63;38.60;99571.50;7259180;19;156888;-55
2023/01/15 07:36:07;;;;;;;;;;;;;;;20.62;38.70;99566.25;7261276;19;154157;-55
2023/01/15 07:38:34;;;;;;;;;;;;;;;20.61;38.32;99573.84;7260582;19;153718;-55
2023/01/15 07:51:27;;;;;;;;;;;;;;;20.36;39.01;99584.09;7260233;19;154043;-55
2023/01/15 07:53:53;;;;;;;;;;;;;;;20.38;38.81;99580.97;7264080;19;153301;-55
2023/01/15 07:56:20;;;;;;;;;;;;;;;20.35;38.90;99585.25;7258479;19;154069;-55
2023/01/15 07:58:49;;;;;;;;;;;;;;;20.33;38.72;99575.53;7258832;19;154827;-55
2023/01/15 08:01:15;;;;;;;;;;;;;;;20.26;39.08;99575.25;7261027;19;155570;-55
2023/01/15 08:03:42;;;;;;;;;;;;;;;20.23;38.70;99589.94;7259111;19;154082;-55
2023/01/15 08:06:09;;;;;;;;;;;;;;;20.16;38.70;99581.25;7260880;19;153704;-54
2023/01/15 08:08:36;;;;;;;;;;;;;;;20.15;38.88;99596.41;7255320;19;153673;-55
2023/01/15 08:16:16;;;;;;;;;;;;;;;20.02;38.40;99600.28;7264038;19;154542;-54
2023/01/15 08:18:45;;;;;;;;;;;;;;;19.92;38.13;99599.50;7260077;19;153213;-55
2023/01/15 08:21:13;;;;;;;;;;;;;;;19.90;38.64;99609.41;7261115;19;153842;-54
2023/01/15 08:23:40;;;;;;;;;;;;;;;19.94;38.32;99610.41;7256276;19;154444;-55
2023/01/15 08:26:07;;;;;;;;;;;;;;;19.93;38.71;99614.34;7257299;19;153277;-54
2023/01/15 08:28:33;;;;;;;;;;;;;;;19.85;38.68;99620.81;7260245;19;153707;-54
2023/01/15 08:31:00;;;;;;;;;;;;;;;19.86;38.47;99622.44;7258147;19;156242;-54
2023/01/15 08:33:27;;;;;;;;;;;;;;;19.79;38.55;99622.97;7259105;19;152855;-54
2023/01/15 08:35:56;;;;;;;;;;;;;;;19.81;38.69;99619.81;7258838;19;154600;-54
2023/01/15 08:38:22;;;;;;;;;;;;;;;19.74;38.66;99620.34;7265672;19;154444;-55
2023/01/15 08:43:30;;;;;;;;;;;;;;;19.75;38.94;99619.22;7259131;19;154111;-55
2023/01/15 08:45:57;;;;;;;;;;;;;;;19.68;38.63;99618.88;7257864;19;154025;-55
2023/01/15 08:48:25;;;;;;;;;;;;;;;19.67;38.83;99614.44;7257143;19;154000;-55
2023/01/15 08:50:52;;;;;;;;;;;;;;;19.67;38.39;99611.63;7258635;19;153653;-58
2023/01/15 08:53:19;;;;;;;;;;;;;;;19.62;38.78;99606.25;7257836;19;152858;-58
2023/01/15 08:55:46;;;;;;;;;;;;;;;19.59;38.91;99604.09;7256654;19;154059;-58
2023/01/15 08:58:14;;;;;;;;;;;;;;;19.55;38.79;99614.31;7265933;19;155972;-58
2023/01/15 09:00:40;;;;;;;;;;;;;;;19.57;38.97;99600.00;7262545;19;154441;-57
2023/01/15 09:03:07;;;;;;;;;;;;;;;19.57;38.96;99609.22;7263194;19;154190;-58
2023/01/15 09:05:35;;;;;;;;;;;;;;;19.51;39.22;99607.75;7264664;19;154884;-58
2023/01/15 09:08:03;;;;;;;;;;;;;;;19.45;39.17;99620.28;7262606;19;154243;-58
2023/01/15 09:10:30;;;;;;;;;;;;;;;19.41;38.88;99608.88;7259156;19;155650;-58
2023/01/15 09:12:59;;;;;;;;;;;;;;;19.41;39.40;99616.47;7266052;19;153989;-59
2023/01/15 09:15:26;;;;;;;;;;;;;;;19.35;39.46;99623.41;7264904;19;155386;-58
2023/01/15 09:17:54;;;;;;;;;;;;;;;19.40;39.04;99623.22;7266278;19;155088;-57
2023/01/15 09:20:21;;;;;;;;;;;;;;;19.35;39.51;99621.41;7272468;19;154347;-58
2023/01/15 09:22:48;;;;;;;;;;;;;;;19.34;39.12;99622.59;7264590;19;154327;-58
2023/01/15 09:25:17;;;;;;;;;;;;;;;19.34;38.97;99621.78;7259502;19;153300;-57
2023/01/15 09:27:45;;;;;;;;;;;;;;;19.33;39.05;99622.91;7264705;19;154049;-58
2023/01/15 09:30:15;;;;;;;;;;;;;;;19.25;39.18;99616.19;7261444;19;154109;-58
2023/01/15 09:32:41;;;;;;;;;;;;;;;19.26;39.37;99639.41;7265766;19;153756;-63
2023/01/15 09:35:08;;;;;;;;;;;;;;;19.23;39.42;99634.47;7264044;19;153493;-58
2023/01/15 09:37:35;;;;;;;;;;;;;;;19.17;39.36;99642.19;7264586;19;153598;-58
2023/01/15 09:40:04;;;;;;;;;;;;;;;19.16;39.37;99645.34;7258157;19;154949;-58
2023/01/15 09:42:42;;;;;;;;;;;;;;;19.05;39.66;99645.69;7272045;19;154607;-58
2023/01/15 09:45:18;;;;;;;;;;;;;;;19.04;39.51;99648.81;7263845;19;153547;-58
2023/01/15 09:47:45;;;;;;;;;;;;;;;19.08;39.73;99652.59;7263132;19;154715;-58
2023/01/15 09:50:12;;;;;;;;;;;;;;;19.05;39.58;99654.06;7260541;19;154626;-58
2023/01/15 09:52:48;;;;;;;;;;;;;;;19.04;39.70;99652.44;7266377;19;153419;-58
2023/01/15 09:55:17;;;;;;;;;;;;;;;19.01;40.05;99655.91;7263911;19;153478;-58
2023/01/15 09:57:48;;;;;;;;;;;;;;;19.02;39.76;99668.75;7263995;19;153773;-58
2023/01/15 10:00:18;;;;;;;;;;;;;;;18.97;39.83;99674.50;7263625;19;153057;-58
2023/01/15 10:02:49;;;;;;;;;;;;;;;18.92;40.17;99677.47;7262291;19;154315;-57
2023/01/15 10:05:25;;;;;;;;;;;;;;;18.90;40.01;99676.94;7265965;19;156010;-58
2023/01/15 10:08:01;;;;;;;;;;;;;;;18.93;40.04;99697.88;7261465;19;157389;-57
2023/01/15 10:10:32;;;;;;;;;;;;;;;18.92;40.31;99696.22;7259452;19;154538;-58
2023/01/15 10:13:04;;;;;;;;;;;;;;;18.89;40.52;99706.13;7263083;19;152748;-58
2023/01/15 10:15:35;;;;;;;;;;;;;;;18.83;40.09;99713.00;7263017;19;155504;-58
2023/01/15 10:18:04;;;;;;;;;;;;;;;18.80;39.97;99716.47;7261329;19;154788;-58
2023/01/15 10:20:40;;;;;;;;;;;;;;;18.72;40.06;99731.25;7265071;19;154051;-58
2023/01/15 10:23:14;;;;;;;;;;;;;;;18.77;40.22;99716.28;7262362;19;155435;-58
2023/01/15 10:25:46;;;;;;;;;;;;;;;18.82;40.54;99707.72;7257986;19;154077;-59
2023/01/15 10:28:18;;;;;;;;;;;;;;;18.81;40.27;99728.47;7271445;19;154663;-58
2023/01/15 10:30:49;;;;;;;;;;;;;;;18.73;40.50;99730.09;7262319;19;155073;-58
2023/01/15 10:33:27;;;;;;;;;;;;;;;18.71;40.65;99729.63;7262815;19;153755;-58
2023/01/15 10:36:00;;;;;;;;;;;;;;;18.70;40.48;99716.78;7262691;19;153877;-58
2023/01/15 10:38:30;;;;;;;;;;;;;;;18.68;40.85;99744.25;7262774;19;153798;-58
2023/01/15 10:40:57;;;;;;;;;;;;;;;18.72;40.47;99731.25;7261291;19;153689;-58
2023/01/15 10:43:31;;;;;;;;;;;;;;;18.69;40.65;99742.28;7263590;19;155150;-58
2023/01/15 10:45:59;;;;;;;;;;;;;;;18.64;40.89;99741.28;7261982;19;154972;-58
2023/01/15 10:48:29;;;;;;;;;;;;;;;18.70;40.67;99750.34;7262776;19;154236;-58
2023/01/15 10:51:00;;;;;;;;;;;;;;;18.67;40.68;99745.38;7269096;19;154759;-59
2023/01/15 10:53:28;;;;;;;;;;;;;;;18.66;40.75;99749.34;7258075;19;153725;-58
2023/01/15 10:56:04;;;;;;;;;;;;;;;18.58;40.79;99773.34;7260700;19;154038;-58
2023/01/15 10:58:31;;;;;;;;;;;;;;;18.60;40.73;99751.47;7261556;19;153512;-58
2023/01/15 11:01:03;;;;;;;;;;;;;;;18.61;41.01;99763.50;7264386;19;153650;-58
2023/01/15 11:03:39;;;;;;;;;;;;;;;18.57;40.88;99751.31;7261893;19;154329;-58
2023/01/15 11:06:10;;;;;;;;;;;;;;;18.61;40.86;99760.69;7261050;19;154616;-58
2023/01/15 11:08:39;;;;;;;;;;;;;;;18.57;40.87;99754.94;7257067;19;153951;-58
2023/01/15 11:19:35;;;;;;;;;;;;;;;18.57;41.18;99765.28;7269490;19;154822;-58
2023/01/15 11:19:52;;;;;;;;;;;;;;;18.53;41.02;99770.69;7255274;19;153928;-58
2023/01/15 11:22:19;;;;;;;;;;;;;;;18.53;41.21;99772.69;7260670;19;153304;-58
2023/01/15 11:24:49;;;;;;;;;;;;;;;18.45;40.92;99760.25;7257753;19;154143;-58
2023/01/15 11:27:18;;;;;;;;;;;;;;;18.44;41.27;99755.03;7261103;19;154424;-58
2023/01/15 11:29:49;;;;;;;;;;;;;;;18.44;40.84;99749.44;7261155;19;153426;-58
2023/01/15 11:32:25;;;;;;;;;;;;;;;18.45;40.82;99732.31;7260395;19;155547;-58
2023/01/15 11:34:53;;;;;;;;;;;;;;;18.42;40.96;99754.50;7264314;19;154682;-58
2023/01/15 11:37:20;;;;;;;;;;;;;;;18.41;40.99;99750.88;7258447;19;154323;-58
2023/01/15 11:39:56;;;;;;;;;;;;;;;18.38;40.82;99743.16;7253832;19;156730;-58
2023/01/15 11:52:54;;;;;;;;;;;;;;;18.30;40.90;99731.94;7260612;19;154565;-58
2023/01/15 11:55:24;;;;;;;;;;;;;;;18.30;41.13;99731.94;7256469;19;153922;-58
2023/01/15 11:57:51;;;;;;;;;;;;;;;18.28;41.24;99723.03;7267600;19;153463;-58
2023/01/15 12:00:20;;;;;;;;;;;;;;;18.23;41.26;99722.03;7259322;19;153473;-58
2023/01/15 12:02:48;;;;;;;;;;;;;;;18.25;41.25;99712.50;7260738;19;154026;-58
2023/01/15 12:05:15;;;;;;;;;;;;;;;18.24;41.41;99714.47;7260089;19;153795;-57
2023/01/15 12:07:43;;;;;;;;;;;;;;;18.20;41.55;99699.50;7259143;19;154283;-57
2023/01/15 12:11:02;;;;;;;;;;;;;;;18.20;41.73;99697.53;7259754;19;153520;-59
2023/01/15 12:13:08;;;;;;;;;;;;;;;18.22;41.35;99702.78;7258380;19;154156;-57
2023/01/15 12:15:44;;;;;;;;;;;;;;;18.21;41.33;99707.53;7257225;19;153389;-57
2023/01/15 12:18:14;;;;;;;;;;;;;;;18.20;41.78;99691.09;7258878;19;154014;-58
2023/01/15 12:20:51;;;;;;;;;;;;;;;18.21;42.15;99701.94;7263301;19;154231;-58
2023/01/15 12:23:28;;;;;;;;;;;;;;;18.23;42.08;99698.84;7255734;19;154423;-57
2023/01/15 12:26:16;;;;;;;;;;;;;;;18.23;41.91;99690.44;7257759;19;153228;-57
2023/01/15 12:28:51;;;;;;;;;;;;;;;18.26;42.02;99691.78;7256566;19;154577;-57
2023/01/15 12:31:22;;;;;;;;;;;;;;;18.28;41.81;99695.91;7258289;19;153854;-57
2023/01/15 12:33:54;;;;;;;;;;;;;;;18.30;41.88;99682.44;7232755;19;157666;-57
2023/01/15 12:36:28;;;;;;;;;;;;;;;18.34;41.86;99679.81;7259389;19;154866;-57
2023/01/15 12:38:59;;;;;;;;;;;;;;;18.38;41.71;99681.63;7264404;19;153958;-58
2023/01/15 12:44:58;;;;;;;;;;;;;;;18.41;41.72;99680.97;7265050;19;154126;-57
2023/01/15 12:46:52;;;;;;;;;;;;;;;18.48;41.55;99678.53;7264677;19;153157;-57
2023/01/15 12:49:28;;;;;;;;;;;;;;;18.51;41.62;99683.47;7262904;19;153840;-57
2023/01/15 12:52:05;;;;;;;;;;;;;;;18.56;41.56;99672.16;7265087;19;153598;-57
2023/01/15 12:54:37;;;;;;;;;;;;;;;18.61;41.55;99671.19;7262850;19;153961;-57
2023/01/15 12:57:05;;;;;;;;;;;;;;;18.64;41.39;99665.75;7261666;19;155687;-57
2023/01/15 12:59:35;;;;;;;;;;;;;;;18.70;40.74;99663.63;7263127;19;154120;-58
2023/01/15 13:02:08;;;;;;;;;;;;;;;18.74;40.78;99661.81;7261465;19;153806;-57
2023/01/15 13:04:36;;;;;;;;;;;;;;;18.79;39.81;99661.66;7260226;19;154425;-58
2023/01/15 13:07:07;;;;;;;;;;;;;;;18.84;40.45;99660.66;7272244;19;154469;-58
2023/01/15 13:09:38;;;;;;;;;;;;;;;18.88;40.01;99664.47;7257828;19;153519;-57
2023/01/15 13:12:14;;;;;;;;;;;;;;;18.91;40.04;99678.59;7263223;19;153504;-59
2023/01/15 13:14:41;;;;;;;;;;;;;;;18.94;40.50;99654.75;7262421;19;154197;-56
2023/01/15 13:17:12;;;;;;;;;;;;;;;18.99;40.25;99643.38;7262831;19;153479;-57
2023/01/15 13:19:45;;;;;;;;;;;;;;;19.04;40.42;99635.63;7262949;19;154031;-58
2023/01/15 13:22:14;;;;;;;;;;;;;;;19.10;40.53;99639.91;7265965;19;154207;-57
2023/01/15 13:24:41;;;;;;;;;;;;;;;19.16;40.74;99636.94;7261446;19;153762;-57
2023/01/15 13:27:16;;;;;;;;;;;;;;;19.21;40.69;99642.38;7272959;19;153619;-58
2023/01/15 13:29:44;;;;;;;;;;;;;;;19.25;40.70;99634.97;7260496;19;154197;-58
2023/01/15 13:32:18;;;;;;;;;;;;;;;19.27;40.30;99638.25;7263626;19;153458;-58
2023/01/15 13:34:45;;;;;;;;;;;;;;;19.32;40.59;99632.47;7263322;19;153606;-58
2023/01/15 13:37:19;;;;;;;;;;;;;;;19.35;40.70;99638.22;7261029;19;155159;-57
2023/01/15 13:39:47;;;;;;;;;;;;;;;19.38;40.84;99633.94;7261243;19;154683;-57